sensor_id;sensor_type;location;lat;lon;timestamp;P1;durP1;ratioP1;P2;durP2;ratioP2
46551;SDS011;32278;51.810;4.712;2023-05-23T00:14:24;29.77;;;14.63;;
46551;SDS011;32278;51.810;4.712;2023-05-23T00:16:50;39.92;;;15.30;;
46551;SDS011;32278;51.810;4.712;2023-05-23T00:19:16;33.85;;;14.13;;
46551;SDS011;32278;51.810;4.712;2023-05-23T00:21:44;37.42;;;15.50;;
46551;SDS011;32278;51.810;4.712;2023-05-23T00:24:14;37.75;;;13.55;;
46551;SDS011;32278;51.810;4.712;2023-05-23T00:26:43;41.88;;;17.55;;
46551;SDS011;32278;51.810;4.712;2023-05-23T00:29:09;33.78;;;13.95;;
46551;SDS011;32278;51.810;4.712;2023-05-23T00:31:43;33.13;;;14.02;;
46551;SDS011;32278;51.810;4.712;2023-05-23T00:34:10;34.25;;;12.80;;
46551;SDS011;32278;51.810;4.712;2023-05-23T00:36:37;32.03;;;14.77;;
46551;SDS011;32278;51.810;4.712;2023-05-23T00:39:05;25.55;;;12.60;;
46551;SDS011;32278;51.810;4.712;2023-05-23T00:41:31;27.95;;;12.85;;
46551;SDS011;32278;51.810;4.712;2023-05-23T00:43:57;25.52;;;11.52;;
46551;SDS011;32278;51.810;4.712;2023-05-23T00:46:24;22.02;;;10.18;;
46551;SDS011;32278;51.810;4.712;2023-05-23T00:48:50;18.85;;;8.52;;
46551;SDS011;32278;51.810;4.712;2023-05-23T00:51:16;20.63;;;9.73;;
46551;SDS011;32278;51.810;4.712;2023-05-23T00:53:43;27.42;;;10.57;;
46551;SDS011;32278;51.810;4.712;2023-05-23T00:56:09;23.25;;;10.45;;
46551;SDS011;32278;51.810;4.712;2023-05-23T00:58:36;26.15;;;10.25;;
46551;SDS011;32278;51.810;4.712;2023-05-23T01:01:02;19.23;;;10.48;;
46551;SDS011;32278;51.810;4.712;2023-05-23T01:03:28;14.95;;;8.60;;
46551;SDS011;32278;51.810;4.712;2023-05-23T01:05:54;18.85;;;9.05;;
46551;SDS011;32278;51.810;4.712;2023-05-23T01:08:20;21.52;;;9.07;;
46551;SDS011;32278;51.810;4.712;2023-05-23T01:10:47;17.00;;;8.23;;
46551;SDS011;32278;51.810;4.712;2023-05-23T01:13:19;18.23;;;8.57;;
46551;SDS011;32278;51.810;4.712;2023-05-23T01:18:17;18.98;;;8.15;;
46551;SDS011;32278;51.810;4.712;2023-05-23T01:20:51;22.85;;;8.75;;
46551;SDS011;32278;51.810;4.712;2023-05-23T01:28:15;19.10;;;9.07;;
46551;SDS011;32278;51.810;4.712;2023-05-23T01:30:43;27.25;;;9.32;;
46551;SDS011;32278;51.810;4.712;2023-05-23T01:33:09;19.55;;;8.52;;
46551;SDS011;32278;51.810;4.712;2023-05-23T01:35:36;18.73;;;9.05;;
46551;SDS011;32278;51.810;4.712;2023-05-23T01:38:02;31.52;;;11.55;;
46551;SDS011;32278;51.810;4.712;2023-05-23T01:40:29;25.95;;;11.43;;
46551;SDS011;32278;51.810;4.712;2023-05-23T01:42:55;27.77;;;10.43;;
46551;SDS011;32278;51.810;4.712;2023-05-23T01:45:21;26.35;;;11.48;;
46551;SDS011;32278;51.810;4.712;2023-05-23T01:47:48;26.63;;;11.68;;
46551;SDS011;32278;51.810;4.712;2023-05-23T01:50:15;23.85;;;11.05;;
46551;SDS011;32278;51.810;4.712;2023-05-23T01:52:41;27.23;;;11.73;;
46551;SDS011;32278;51.810;4.712;2023-05-23T01:55:07;23.52;;;12.57;;
46551;SDS011;32278;51.810;4.712;2023-05-23T01:57:34;29.60;;;12.45;;
46551;SDS011;32278;51.810;4.712;2023-05-23T02:00:00;35.03;;;12.93;;
46551;SDS011;32278;51.810;4.712;2023-05-23T02:02:26;28.08;;;11.85;;
46551;SDS011;32278;51.810;4.712;2023-05-23T02:04:52;24.90;;;11.70;;
46551;SDS011;32278;51.810;4.712;2023-05-23T02:07:18;26.40;;;10.98;;
46551;SDS011;32278;51.810;4.712;2023-05-23T02:09:47;27.25;;;11.57;;
46551;SDS011;32278;51.810;4.712;2023-05-23T02:12:13;36.80;;;12.48;;
46551;SDS011;32278;51.810;4.712;2023-05-23T02:14:39;27.90;;;10.18;;
46551;SDS011;32278;51.810;4.712;2023-05-23T02:17:06;25.83;;;10.57;;
46551;SDS011;32278;51.810;4.712;2023-05-23T02:19:35;26.20;;;12.15;;
46551;SDS011;32278;51.810;4.712;2023-05-23T02:22:02;26.65;;;9.27;;
46551;SDS011;32278;51.810;4.712;2023-05-23T02:24:28;22.40;;;9.57;;
46551;SDS011;32278;51.810;4.712;2023-05-23T02:26:54;21.50;;;9.45;;
46551;SDS011;32278;51.810;4.712;2023-05-23T02:29:20;19.38;;;9.43;;
46551;SDS011;32278;51.810;4.712;2023-05-23T02:31:46;29.52;;;9.10;;
46551;SDS011;32278;51.810;4.712;2023-05-23T02:34:12;22.85;;;8.85;;
46551;SDS011;32278;51.810;4.712;2023-05-23T02:36:38;22.65;;;9.95;;
46551;SDS011;32278;51.810;4.712;2023-05-23T02:39:04;22.08;;;8.35;;
46551;SDS011;32278;51.810;4.712;2023-05-23T02:41:30;22.60;;;8.80;;
46551;SDS011;32278;51.810;4.712;2023-05-23T02:43:57;31.15;;;10.05;;
46551;SDS011;32278;51.810;4.712;2023-05-23T02:46:23;23.73;;;7.88;;
46551;SDS011;32278;51.810;4.712;2023-05-23T02:48:49;24.88;;;8.30;;
46551;SDS011;32278;51.810;4.712;2023-05-23T02:51:15;23.88;;;8.00;;
46551;SDS011;32278;51.810;4.712;2023-05-23T02:53:42;25.23;;;8.48;;
46551;SDS011;32278;51.810;4.712;2023-05-23T02:56:08;28.42;;;8.07;;
46551;SDS011;32278;51.810;4.712;2023-05-23T02:58:34;26.65;;;7.72;;
46551;SDS011;32278;51.810;4.712;2023-05-23T03:01:01;20.60;;;8.07;;
46551;SDS011;32278;51.810;4.712;2023-05-23T03:03:27;22.38;;;8.43;;
46551;SDS011;32278;51.810;4.712;2023-05-23T03:05:54;21.17;;;8.95;;
46551;SDS011;32278;51.810;4.712;2023-05-23T03:08:20;22.85;;;7.97;;
46551;SDS011;32278;51.810;4.712;2023-05-23T03:10:46;30.27;;;8.48;;
46551;SDS011;32278;51.810;4.712;2023-05-23T03:13:12;22.75;;;8.57;;
46551;SDS011;32278;51.810;4.712;2023-05-23T03:15:38;26.45;;;8.88;;
46551;SDS011;32278;51.810;4.712;2023-05-23T03:18:04;23.63;;;7.97;;
46551;SDS011;32278;51.810;4.712;2023-05-23T03:20:30;26.52;;;8.23;;
46551;SDS011;32278;51.810;4.712;2023-05-23T03:22:56;40.15;;;10.10;;
46551;SDS011;32278;51.810;4.712;2023-05-23T03:25:22;25.70;;;10.20;;
46551;SDS011;32278;51.810;4.712;2023-05-23T03:27:48;22.48;;;7.13;;
46551;SDS011;32278;51.810;4.712;2023-05-23T03:30:14;22.35;;;8.25;;
46551;SDS011;32278;51.810;4.712;2023-05-23T03:32:40;26.60;;;7.47;;
46551;SDS011;32278;51.810;4.712;2023-05-23T03:35:06;24.67;;;7.78;;
46551;SDS011;32278;51.810;4.712;2023-05-23T03:37:32;19.25;;;7.80;;
46551;SDS011;32278;51.810;4.712;2023-05-23T03:39:58;23.13;;;6.90;;
46551;SDS011;32278;51.810;4.712;2023-05-23T03:42:24;23.25;;;7.35;;
46551;SDS011;32278;51.810;4.712;2023-05-23T03:44:50;20.10;;;6.07;;
46551;SDS011;32278;51.810;4.712;2023-05-23T03:47:16;22.33;;;7.20;;
46551;SDS011;32278;51.810;4.712;2023-05-23T03:49:42;25.52;;;6.00;;
46551;SDS011;32278;51.810;4.712;2023-05-23T03:52:09;25.63;;;6.28;;
46551;SDS011;32278;51.810;4.712;2023-05-23T03:54:35;18.48;;;4.97;;
46551;SDS011;32278;51.810;4.712;2023-05-23T03:57:01;16.27;;;5.30;;
46551;SDS011;32278;51.810;4.712;2023-05-23T03:59:27;19.13;;;6.75;;
46551;SDS011;32278;51.810;4.712;2023-05-23T04:01:53;17.85;;;5.90;;
46551;SDS011;32278;51.810;4.712;2023-05-23T04:04:22;19.85;;;7.95;;
46551;SDS011;32278;51.810;4.712;2023-05-23T04:06:49;26.25;;;7.00;;
46551;SDS011;32278;51.810;4.712;2023-05-23T04:09:15;18.83;;;6.43;;
46551;SDS011;32278;51.810;4.712;2023-05-23T04:11:42;12.57;;;5.55;;
46551;SDS011;32278;51.810;4.712;2023-05-23T04:14:08;14.93;;;5.30;;
46551;SDS011;32278;51.810;4.712;2023-05-23T04:16:35;11.10;;;5.80;;
46551;SDS011;32278;51.810;4.712;2023-05-23T04:19:02;13.70;;;5.97;;
46551;SDS011;32278;51.810;4.712;2023-05-23T04:21:31;12.25;;;5.55;;
46551;SDS011;32278;51.810;4.712;2023-05-23T04:23:57;20.58;;;8.27;;
46551;SDS011;32278;51.810;4.712;2023-05-23T04:26:23;17.27;;;7.18;;
46551;SDS011;32278;51.810;4.712;2023-05-23T04:28:49;19.90;;;8.18;;
46551;SDS011;32278;51.810;4.712;2023-05-23T04:31:18;15.50;;;6.95;;
46551;SDS011;32278;51.810;4.712;2023-05-23T04:33:44;17.45;;;6.85;;
46551;SDS011;32278;51.810;4.712;2023-05-23T04:36:10;24.88;;;6.43;;
46551;SDS011;32278;51.810;4.712;2023-05-23T04:38:36;17.33;;;6.50;;
46551;SDS011;32278;51.810;4.712;2023-05-23T04:41:03;19.25;;;6.50;;
46551;SDS011;32278;51.810;4.712;2023-05-23T04:43:30;13.68;;;6.90;;
46551;SDS011;32278;51.810;4.712;2023-05-23T04:45:57;17.20;;;6.38;;
46551;SDS011;32278;51.810;4.712;2023-05-23T04:48:23;18.33;;;6.70;;
46551;SDS011;32278;51.810;4.712;2023-05-23T04:50:51;14.85;;;5.50;;
46551;SDS011;32278;51.810;4.712;2023-05-23T04:53:17;10.05;;;5.07;;
46551;SDS011;32278;51.810;4.712;2023-05-23T04:55:43;12.23;;;4.75;;
46551;SDS011;32278;51.810;4.712;2023-05-23T04:58:09;15.32;;;5.72;;
46551;SDS011;32278;51.810;4.712;2023-05-23T05:00:36;24.20;;;5.65;;
46551;SDS011;32278;51.810;4.712;2023-05-23T05:03:02;17.25;;;6.45;;
46551;SDS011;32278;51.810;4.712;2023-05-23T05:05:28;15.88;;;5.40;;
46551;SDS011;32278;51.810;4.712;2023-05-23T05:07:54;16.60;;;5.80;;
46551;SDS011;32278;51.810;4.712;2023-05-23T05:10:20;15.38;;;6.63;;
46551;SDS011;32278;51.810;4.712;2023-05-23T05:12:47;17.73;;;7.50;;
46551;SDS011;32278;51.810;4.712;2023-05-23T05:15:16;21.27;;;6.97;;
46551;SDS011;32278;51.810;4.712;2023-05-23T05:17:42;15.88;;;7.00;;
46551;SDS011;32278;51.810;4.712;2023-05-23T05:20:08;19.05;;;7.50;;
46551;SDS011;32278;51.810;4.712;2023-05-23T05:22:35;21.05;;;5.97;;
46551;SDS011;32278;51.810;4.712;2023-05-23T05:25:01;21.80;;;6.50;;
46551;SDS011;32278;51.810;4.712;2023-05-23T05:27:27;21.38;;;6.18;;
46551;SDS011;32278;51.810;4.712;2023-05-23T05:29:54;16.00;;;6.13;;
46551;SDS011;32278;51.810;4.712;2023-05-23T05:32:28;17.63;;;6.22;;
46551;SDS011;32278;51.810;4.712;2023-05-23T05:34:55;21.15;;;6.85;;
46551;SDS011;32278;51.810;4.712;2023-05-23T05:37:21;23.35;;;8.25;;
46551;SDS011;32278;51.810;4.712;2023-05-23T05:39:47;25.33;;;7.93;;
46551;SDS011;32278;51.810;4.712;2023-05-23T05:42:13;26.88;;;8.65;;
46551;SDS011;32278;51.810;4.712;2023-05-23T05:44:39;21.60;;;8.70;;
46551;SDS011;32278;51.810;4.712;2023-05-23T05:47:05;26.55;;;9.65;;
46551;SDS011;32278;51.810;4.712;2023-05-23T05:49:31;22.02;;;8.30;;
46551;SDS011;32278;51.810;4.712;2023-05-23T05:51:57;29.20;;;7.97;;
46551;SDS011;32278;51.810;4.712;2023-05-23T05:54:23;20.10;;;7.88;;
46551;SDS011;32278;51.810;4.712;2023-05-23T05:56:49;22.02;;;8.60;;
46551;SDS011;32278;51.810;4.712;2023-05-23T05:59:15;16.60;;;6.82;;
46551;SDS011;32278;51.810;4.712;2023-05-23T06:01:41;19.52;;;6.57;;
46551;SDS011;32278;51.810;4.712;2023-05-23T06:04:08;18.88;;;6.68;;
46551;SDS011;32278;51.810;4.712;2023-05-23T06:06:34;21.00;;;7.35;;
46551;SDS011;32278;51.810;4.712;2023-05-23T06:09:01;20.55;;;7.32;;
46551;SDS011;32278;51.810;4.712;2023-05-23T06:11:27;19.83;;;8.80;;
46551;SDS011;32278;51.810;4.712;2023-05-23T06:13:53;17.25;;;7.40;;
46551;SDS011;32278;51.810;4.712;2023-05-23T06:16:19;16.00;;;6.03;;
46551;SDS011;32278;51.810;4.712;2023-05-23T06:18:45;22.70;;;8.52;;
46551;SDS011;32278;51.810;4.712;2023-05-23T06:21:11;27.75;;;11.50;;
46551;SDS011;32278;51.810;4.712;2023-05-23T06:23:37;18.90;;;8.50;;
46551;SDS011;32278;51.810;4.712;2023-05-23T06:26:03;21.58;;;10.38;;
46551;SDS011;32278;51.810;4.712;2023-05-23T06:28:32;21.05;;;8.63;;
46551;SDS011;32278;51.810;4.712;2023-05-23T06:30:58;13.13;;;6.40;;
46551;SDS011;32278;51.810;4.712;2023-05-23T06:33:24;20.10;;;6.88;;
46551;SDS011;32278;51.810;4.712;2023-05-23T06:35:50;18.83;;;5.85;;
46551;SDS011;32278;51.810;4.712;2023-05-23T06:38:16;14.55;;;5.93;;
46551;SDS011;32278;51.810;4.712;2023-05-23T06:40:42;19.80;;;5.97;;
46551;SDS011;32278;51.810;4.712;2023-05-23T06:43:08;20.15;;;5.70;;
46551;SDS011;32278;51.810;4.712;2023-05-23T06:45:34;18.73;;;5.78;;
46551;SDS011;32278;51.810;4.712;2023-05-23T06:48:02;26.55;;;6.63;;
46551;SDS011;32278;51.810;4.712;2023-05-23T06:50:28;21.63;;;7.07;;
46551;SDS011;32278;51.810;4.712;2023-05-23T06:52:54;19.55;;;6.53;;
46551;SDS011;32278;51.810;4.712;2023-05-23T06:55:20;14.75;;;6.40;;
46551;SDS011;32278;51.810;4.712;2023-05-23T06:57:46;16.85;;;7.03;;
46551;SDS011;32278;51.810;4.712;2023-05-23T07:00:15;16.90;;;6.60;;
46551;SDS011;32278;51.810;4.712;2023-05-23T07:02:41;16.73;;;6.40;;
46551;SDS011;32278;51.810;4.712;2023-05-23T07:05:09;19.25;;;6.60;;
46551;SDS011;32278;51.810;4.712;2023-05-23T07:07:35;17.80;;;6.38;;
46551;SDS011;32278;51.810;4.712;2023-05-23T07:10:01;13.35;;;5.95;;
46551;SDS011;32278;51.810;4.712;2023-05-23T07:12:27;13.85;;;5.85;;
46551;SDS011;32278;51.810;4.712;2023-05-23T07:14:53;18.15;;;5.90;;
46551;SDS011;32278;51.810;4.712;2023-05-23T07:17:19;11.27;;;5.63;;
46551;SDS011;32278;51.810;4.712;2023-05-23T07:19:45;8.80;;;5.03;;
46551;SDS011;32278;51.810;4.712;2023-05-23T07:22:11;14.38;;;5.18;;
46551;SDS011;32278;51.810;4.712;2023-05-23T07:24:37;10.48;;;5.72;;
46551;SDS011;32278;51.810;4.712;2023-05-23T07:27:03;16.08;;;5.93;;
46551;SDS011;32278;51.810;4.712;2023-05-23T07:29:29;11.32;;;5.45;;
46551;SDS011;32278;51.810;4.712;2023-05-23T07:31:55;13.70;;;5.28;;
46551;SDS011;32278;51.810;4.712;2023-05-23T07:34:22;12.85;;;5.45;;
46551;SDS011;32278;51.810;4.712;2023-05-23T07:36:49;11.85;;;4.05;;
46551;SDS011;32278;51.810;4.712;2023-05-23T07:39:14;11.38;;;4.13;;
46551;SDS011;32278;51.810;4.712;2023-05-23T07:41:45;12.82;;;4.22;;
46551;SDS011;32278;51.810;4.712;2023-05-23T07:44:11;12.05;;;3.42;;
46551;SDS011;32278;51.810;4.712;2023-05-23T07:46:37;10.35;;;4.03;;
46551;SDS011;32278;51.810;4.712;2023-05-23T07:49:03;12.38;;;3.92;;
46551;SDS011;32278;51.810;4.712;2023-05-23T07:51:30;9.45;;;3.70;;
46551;SDS011;32278;51.810;4.712;2023-05-23T07:53:56;10.43;;;3.55;;
46551;SDS011;32278;51.810;4.712;2023-05-23T07:56:22;10.50;;;3.00;;
46551;SDS011;32278;51.810;4.712;2023-05-23T07:58:48;13.60;;;2.92;;
46551;SDS011;32278;51.810;4.712;2023-05-23T08:01:14;12.30;;;2.80;;
46551;SDS011;32278;51.810;4.712;2023-05-23T08:03:42;14.85;;;3.53;;
46551;SDS011;32278;51.810;4.712;2023-05-23T08:06:08;9.65;;;2.83;;
46551;SDS011;32278;51.810;4.712;2023-05-23T08:08:34;16.67;;;3.47;;
46551;SDS011;32278;51.810;4.712;2023-05-23T08:11:01;14.18;;;2.95;;
46551;SDS011;32278;51.810;4.712;2023-05-23T08:13:27;9.13;;;2.28;;
46551;SDS011;32278;51.810;4.712;2023-05-23T08:15:53;8.85;;;2.53;;
46551;SDS011;32278;51.810;4.712;2023-05-23T08:18:19;14.23;;;3.15;;
46551;SDS011;32278;51.810;4.712;2023-05-23T08:20:45;14.10;;;3.15;;
46551;SDS011;32278;51.810;4.712;2023-05-23T08:23:11;15.35;;;2.70;;
46551;SDS011;32278;51.810;4.712;2023-05-23T08:25:38;16.60;;;3.70;;
46551;SDS011;32278;51.810;4.712;2023-05-23T08:28:04;15.85;;;3.92;;
46551;SDS011;32278;51.810;4.712;2023-05-23T08:30:30;11.40;;;3.38;;
46551;SDS011;32278;51.810;4.712;2023-05-23T08:32:57;15.25;;;3.40;;
46551;SDS011;32278;51.810;4.712;2023-05-23T08:35:24;13.77;;;3.08;;
46551;SDS011;32278;51.810;4.712;2023-05-23T08:37:53;11.85;;;3.53;;
46551;SDS011;32278;51.810;4.712;2023-05-23T08:40:21;17.52;;;3.42;;
46551;SDS011;32278;51.810;4.712;2023-05-23T08:42:47;13.98;;;2.97;;
46551;SDS011;32278;51.810;4.712;2023-05-23T08:45:13;17.40;;;3.38;;
46551;SDS011;32278;51.810;4.712;2023-05-23T08:47:43;14.23;;;2.80;;
46551;SDS011;32278;51.810;4.712;2023-05-23T08:50:10;12.15;;;2.92;;
46551;SDS011;32278;51.810;4.712;2023-05-23T08:52:37;11.50;;;3.80;;
46551;SDS011;32278;51.810;4.712;2023-05-23T08:55:07;15.07;;;2.60;;
46551;SDS011;32278;51.810;4.712;2023-05-23T08:57:34;16.77;;;3.08;;
46551;SDS011;32278;51.810;4.712;2023-05-23T09:00:00;11.77;;;3.20;;
46551;SDS011;32278;51.810;4.712;2023-05-23T09:02:32;26.23;;;2.80;;
46551;SDS011;32278;51.810;4.712;2023-05-23T09:04:58;10.88;;;3.30;;
46551;SDS011;32278;51.810;4.712;2023-05-23T09:07:25;14.95;;;3.38;;
46551;SDS011;32278;51.810;4.712;2023-05-23T09:09:53;14.27;;;2.78;;
46551;SDS011;32278;51.810;4.712;2023-05-23T09:12:19;12.43;;;2.40;;
46551;SDS011;32278;51.810;4.712;2023-05-23T09:14:47;13.13;;;2.58;;
46551;SDS011;32278;51.810;4.712;2023-05-23T09:17:17;8.77;;;2.83;;
46551;SDS011;32278;51.810;4.712;2023-05-23T09:19:43;16.45;;;3.83;;
46551;SDS011;32278;51.810;4.712;2023-05-23T09:22:10;16.15;;;4.18;;
46551;SDS011;32278;51.810;4.712;2023-05-23T09:24:37;11.88;;;3.25;;
46551;SDS011;32278;51.810;4.712;2023-05-23T09:27:06;10.15;;;2.92;;
46551;SDS011;32278;51.810;4.712;2023-05-23T09:29:36;13.98;;;3.25;;
46551;SDS011;32278;51.810;4.712;2023-05-23T09:32:13;12.90;;;3.13;;
46551;SDS011;32278;51.810;4.712;2023-05-23T09:35:02;10.63;;;3.22;;
46551;SDS011;32278;51.810;4.712;2023-05-23T09:37:30;15.35;;;3.13;;
46551;SDS011;32278;51.810;4.712;2023-05-23T09:40:00;17.25;;;3.85;;
46551;SDS011;32278;51.810;4.712;2023-05-23T09:42:32;15.45;;;3.72;;
46551;SDS011;32278;51.810;4.712;2023-05-23T09:44:59;12.20;;;2.83;;
46551;SDS011;32278;51.810;4.712;2023-05-23T09:47:25;10.75;;;2.60;;
46551;SDS011;32278;51.810;4.712;2023-05-23T09:49:51;10.40;;;2.30;;
46551;SDS011;32278;51.810;4.712;2023-05-23T09:52:17;14.40;;;3.08;;
46551;SDS011;32278;51.810;4.712;2023-05-23T09:54:46;17.05;;;3.90;;
46551;SDS011;32278;51.810;4.712;2023-05-23T09:57:13;12.88;;;3.63;;
46551;SDS011;32278;51.810;4.712;2023-05-23T09:59:41;11.23;;;2.90;;
46551;SDS011;32278;51.810;4.712;2023-05-23T10:02:10;13.05;;;3.97;;
46551;SDS011;32278;51.810;4.712;2023-05-23T10:04:37;14.00;;;2.70;;
46551;SDS011;32278;51.810;4.712;2023-05-23T10:09:38;11.32;;;3.22;;
46551;SDS011;32278;51.810;4.712;2023-05-23T10:12:32;11.40;;;2.95;;
46551;SDS011;32278;51.810;4.712;2023-05-23T10:15:02;13.27;;;5.05;;
46551;SDS011;32278;51.810;4.712;2023-05-23T10:17:32;11.55;;;3.15;;
46551;SDS011;32278;51.810;4.712;2023-05-23T10:20:06;7.03;;;3.00;;
46551;SDS011;32278;51.810;4.712;2023-05-23T10:22:34;9.77;;;3.20;;
46551;SDS011;32278;51.810;4.712;2023-05-23T10:25:01;11.70;;;3.20;;
46551;SDS011;32278;51.810;4.712;2023-05-23T10:27:29;11.02;;;3.15;;
46551;SDS011;32278;51.810;4.712;2023-05-23T10:29:56;14.48;;;3.03;;
46551;SDS011;32278;51.810;4.712;2023-05-23T10:32:22;17.58;;;3.35;;
46551;SDS011;32278;51.810;4.712;2023-05-23T10:37:26;11.52;;;3.15;;
46551;SDS011;32278;51.810;4.712;2023-05-23T10:40:10;15.25;;;3.60;;
46551;SDS011;32278;51.810;4.712;2023-05-23T10:45:16;16.10;;;4.85;;
46551;SDS011;32278;51.810;4.712;2023-05-23T10:47:42;14.77;;;3.80;;
46551;SDS011;32278;51.810;4.712;2023-05-23T10:50:12;12.25;;;3.33;;
46551;SDS011;32278;51.810;4.712;2023-05-23T10:52:39;14.68;;;4.07;;
46551;SDS011;32278;51.810;4.712;2023-05-23T10:55:14;18.75;;;3.33;;
46551;SDS011;32278;51.810;4.712;2023-05-23T10:57:43;13.90;;;3.17;;
46551;SDS011;32278;51.810;4.712;2023-05-23T11:00:13;12.45;;;2.83;;
46551;SDS011;32278;51.810;4.712;2023-05-23T11:02:45;14.23;;;3.03;;
46551;SDS011;32278;51.810;4.712;2023-05-23T11:05:21;17.85;;;4.43;;
46551;SDS011;32278;51.810;4.712;2023-05-23T11:10:53;11.98;;;2.95;;
46551;SDS011;32278;51.810;4.712;2023-05-23T11:13:20;10.68;;;3.70;;
46551;SDS011;32278;51.810;4.712;2023-05-23T11:15:46;12.45;;;3.20;;
46551;SDS011;32278;51.810;4.712;2023-05-23T11:18:25;16.52;;;3.90;;
46551;SDS011;32278;51.810;4.712;2023-05-23T11:20:52;16.38;;;3.45;;
46551;SDS011;32278;51.810;4.712;2023-05-23T11:23:18;16.55;;;3.75;;
46551;SDS011;32278;51.810;4.712;2023-05-23T11:25:49;10.90;;;3.10;;
46551;SDS011;32278;51.810;4.712;2023-05-23T11:28:16;14.68;;;3.78;;
46551;SDS011;32278;51.810;4.712;2023-05-23T11:30:42;13.15;;;2.72;;
46551;SDS011;32278;51.810;4.712;2023-05-23T11:33:09;12.13;;;3.65;;
46551;SDS011;32278;51.810;4.712;2023-05-23T11:35:45;16.13;;;4.15;;
46551;SDS011;32278;51.810;4.712;2023-05-23T11:38:12;22.88;;;3.90;;
46551;SDS011;32278;51.810;4.712;2023-05-23T11:40:40;15.18;;;3.15;;
46551;SDS011;32278;51.810;4.712;2023-05-23T11:43:08;15.70;;;3.60;;
46551;SDS011;32278;51.810;4.712;2023-05-23T11:45:35;10.80;;;2.38;;
46551;SDS011;32278;51.810;4.712;2023-05-23T11:48:04;13.75;;;3.22;;
46551;SDS011;32278;51.810;4.712;2023-05-23T11:50:31;18.27;;;3.33;;
46551;SDS011;32278;51.810;4.712;2023-05-23T11:52:57;13.50;;;3.33;;
46551;SDS011;32278;51.810;4.712;2023-05-23T11:55:22;10.38;;;2.60;;
46551;SDS011;32278;51.810;4.712;2023-05-23T11:57:49;12.13;;;3.17;;
46551;SDS011;32278;51.810;4.712;2023-05-23T12:00:15;10.75;;;2.97;;
46551;SDS011;32278;51.810;4.712;2023-05-23T12:02:42;11.95;;;3.00;;
46551;SDS011;32278;51.810;4.712;2023-05-23T12:05:12;20.65;;;4.40;;
46551;SDS011;32278;51.810;4.712;2023-05-23T12:07:44;9.07;;;3.22;;
46551;SDS011;32278;51.810;4.712;2023-05-23T12:10:11;17.15;;;3.70;;
46551;SDS011;32278;51.810;4.712;2023-05-23T12:12:37;9.60;;;2.75;;
46551;SDS011;32278;51.810;4.712;2023-05-23T12:15:03;10.43;;;2.95;;
46551;SDS011;32278;51.810;4.712;2023-05-23T12:17:29;17.80;;;3.60;;
46551;SDS011;32278;51.810;4.712;2023-05-23T12:19:56;11.25;;;3.17;;
46551;SDS011;32278;51.810;4.712;2023-05-23T12:22:22;17.50;;;3.45;;
46551;SDS011;32278;51.810;4.712;2023-05-23T12:24:51;8.95;;;2.65;;
46551;SDS011;32278;51.810;4.712;2023-05-23T12:27:18;18.63;;;3.30;;
46551;SDS011;32278;51.810;4.712;2023-05-23T12:29:48;12.68;;;3.70;;
46551;SDS011;32278;51.810;4.712;2023-05-23T12:34:43;10.68;;;3.38;;
46551;SDS011;32278;51.810;4.712;2023-05-23T12:37:11;13.80;;;3.08;;
46551;SDS011;32278;51.810;4.712;2023-05-23T12:39:38;14.10;;;4.13;;
46551;SDS011;32278;51.810;4.712;2023-05-23T12:42:08;15.32;;;3.47;;
46551;SDS011;32278;51.810;4.712;2023-05-23T12:44:34;16.23;;;2.88;;
46551;SDS011;32278;51.810;4.712;2023-05-23T12:47:01;13.73;;;2.90;;
46551;SDS011;32278;51.810;4.712;2023-05-23T12:49:27;17.40;;;3.78;;
46551;SDS011;32278;51.810;4.712;2023-05-23T12:51:53;9.70;;;3.45;;
46551;SDS011;32278;51.810;4.712;2023-05-23T12:54:19;12.68;;;3.08;;
46551;SDS011;32278;51.810;4.712;2023-05-23T12:56:45;20.30;;;3.75;;
46551;SDS011;32278;51.810;4.712;2023-05-23T12:59:11;9.40;;;2.40;;
46551;SDS011;32278;51.810;4.712;2023-05-23T13:01:37;17.13;;;3.03;;
46551;SDS011;32278;51.810;4.712;2023-05-23T13:04:03;18.42;;;3.40;;
46551;SDS011;32278;51.810;4.712;2023-05-23T13:06:29;19.98;;;3.20;;
46551;SDS011;32278;51.810;4.712;2023-05-23T13:08:55;16.00;;;2.50;;
46551;SDS011;32278;51.810;4.712;2023-05-23T13:11:22;12.15;;;2.72;;
46551;SDS011;32278;51.810;4.712;2023-05-23T13:13:52;9.73;;;2.92;;
46551;SDS011;32278;51.810;4.712;2023-05-23T13:16:18;17.75;;;3.20;;
46551;SDS011;32278;51.810;4.712;2023-05-23T13:18:44;8.40;;;2.80;;
46551;SDS011;32278;51.810;4.712;2023-05-23T13:21:10;11.38;;;2.92;;
46551;SDS011;32278;51.810;4.712;2023-05-23T13:23:36;13.25;;;3.33;;
46551;SDS011;32278;51.810;4.712;2023-05-23T13:26:05;17.52;;;3.42;;
46551;SDS011;32278;51.810;4.712;2023-05-23T13:28:31;16.25;;;3.38;;
46551;SDS011;32278;51.810;4.712;2023-05-23T13:30:57;12.00;;;3.58;;
46551;SDS011;32278;51.810;4.712;2023-05-23T13:33:23;17.75;;;2.72;;
46551;SDS011;32278;51.810;4.712;2023-05-23T13:35:49;15.65;;;3.25;;
46551;SDS011;32278;51.810;4.712;2023-05-23T13:38:16;18.08;;;2.97;;
46551;SDS011;32278;51.810;4.712;2023-05-23T13:40:43;13.65;;;2.97;;
46551;SDS011;32278;51.810;4.712;2023-05-23T13:43:08;12.05;;;3.20;;
46551;SDS011;32278;51.810;4.712;2023-05-23T13:45:35;20.00;;;3.15;;
46551;SDS011;32278;51.810;4.712;2023-05-23T13:48:01;15.00;;;2.58;;
46551;SDS011;32278;51.810;4.712;2023-05-23T13:50:26;13.73;;;3.47;;
46551;SDS011;32278;51.810;4.712;2023-05-23T13:52:52;16.95;;;3.05;;
46551;SDS011;32278;51.810;4.712;2023-05-23T13:55:18;13.80;;;3.13;;
46551;SDS011;32278;51.810;4.712;2023-05-23T13:57:45;15.70;;;3.00;;
46551;SDS011;32278;51.810;4.712;2023-05-23T14:00:11;14.43;;;3.95;;
46551;SDS011;32278;51.810;4.712;2023-05-23T14:02:37;13.18;;;4.07;;
46551;SDS011;32278;51.810;4.712;2023-05-23T14:05:03;23.95;;;4.70;;
46551;SDS011;32278;51.810;4.712;2023-05-23T14:07:31;18.23;;;3.47;;
46551;SDS011;32278;51.810;4.712;2023-05-23T14:09:57;14.60;;;3.20;;
46551;SDS011;32278;51.810;4.712;2023-05-23T14:12:23;15.45;;;2.50;;
46551;SDS011;32278;51.810;4.712;2023-05-23T14:14:50;8.48;;;1.92;;
46551;SDS011;32278;51.810;4.712;2023-05-23T14:17:16;11.60;;;2.75;;
46551;SDS011;32278;51.810;4.712;2023-05-23T14:19:42;13.40;;;2.80;;
46551;SDS011;32278;51.810;4.712;2023-05-23T14:22:08;13.27;;;2.75;;
46551;SDS011;32278;51.810;4.712;2023-05-23T14:24:35;14.60;;;4.70;;
46551;SDS011;32278;51.810;4.712;2023-05-23T14:27:01;15.55;;;4.65;;
46551;SDS011;32278;51.810;4.712;2023-05-23T14:29:29;15.10;;;3.00;;
46551;SDS011;32278;51.810;4.712;2023-05-23T14:31:55;21.08;;;2.95;;
46551;SDS011;32278;51.810;4.712;2023-05-23T14:34:23;14.40;;;3.00;;
46551;SDS011;32278;51.810;4.712;2023-05-23T14:36:49;9.63;;;2.80;;
46551;SDS011;32278;51.810;4.712;2023-05-23T14:39:15;14.73;;;3.08;;
46551;SDS011;32278;51.810;4.712;2023-05-23T14:41:41;13.18;;;2.50;;
46551;SDS011;32278;51.810;4.712;2023-05-23T14:44:07;13.07;;;2.85;;
46551;SDS011;32278;51.810;4.712;2023-05-23T14:46:33;10.23;;;2.83;;
46551;SDS011;32278;51.810;4.712;2023-05-23T14:48:59;9.57;;;3.60;;
46551;SDS011;32278;51.810;4.712;2023-05-23T14:51:25;10.88;;;2.38;;
46551;SDS011;32278;51.810;4.712;2023-05-23T14:53:51;14.90;;;2.70;;
46551;SDS011;32278;51.810;4.712;2023-05-23T14:56:17;10.80;;;3.00;;
46551;SDS011;32278;51.810;4.712;2023-05-23T14:58:43;13.65;;;3.38;;
46551;SDS011;32278;51.810;4.712;2023-05-23T15:01:12;12.02;;;3.17;;
46551;SDS011;32278;51.810;4.712;2023-05-23T15:03:38;19.15;;;3.08;;
46551;SDS011;32278;51.810;4.712;2023-05-23T15:06:05;9.13;;;2.45;;